sensor_id;sensor_type;location;lat;lon;timestamp;temperature;humidity
12152;DHT22;6139;51.274;7.128;2023-10-31T00:00:34;11.00;99.90
12152;DHT22;6139;51.274;7.128;2023-10-31T00:01:36;11.00;99.90
12152;DHT22;6139;51.274;7.128;2023-10-31T00:02:38;11.00;99.90
12152;DHT22;6139;51.274;7.128;2023-10-31T00:03:39;11.00;99.90
12152;DHT22;6139;51.274;7.128;2023-10-31T00:04:43;10.90;99.90
12152;DHT22;6139;51.274;7.128;2023-10-31T00:05:45;10.90;99.90
12152;DHT22;6139;51.274;7.128;2023-10-31T00:06:47;10.90;99.90
12152;DHT22;6139;51.274;7.128;2023-10-31T00:07:49;10.80;99.90
12152;DHT22;6139;51.274;7.128;2023-10-31T00:08:51;10.90;99.90
12152;DHT22;6139;51.274;7.128;2023-10-31T00:09:52;10.80;99.90
12152;DHT22;6139;51.274;7.128;2023-10-31T00:10:54;10.80;99.90
12152;DHT22;6139;51.274;7.128;2023-10-31T00:11:55;10.80;99.90
12152;DHT22;6139;51.274;7.128;2023-10-31T00:12:57;10.70;99.90
12152;DHT22;6139;51.274;7.128;2023-10-31T00:13:58;10.70;99.90
12152;DHT22;6139;51.274;7.128;2023-10-31T00:15:00;10.70;99.90
12152;DHT22;6139;51.274;7.128;2023-10-31T00:16:01;10.60;99.90
12152;DHT22;6139;51.274;7.128;2023-10-31T00:17:03;10.60;99.90
12152;DHT22;6139;51.274;7.128;2023-10-31T00:18:04;10.60;99.90
12152;DHT22;6139;51.274;7.128;2023-10-31T00:19:06;10.60;99.90
12152;DHT22;6139;51.274;7.128;2023-10-31T00:20:07;10.70;99.90
12152;DHT22;6139;51.274;7.128;2023-10-31T00:21:11;10.70;99.90
12152;DHT22;6139;51.274;7.128;2023-10-31T00:22:12;10.60;99.90
12152;DHT22;6139;51.274;7.128;2023-10-31T00:23:14;10.60;99.90
12152;DHT22;6139;51.274;7.128;2023-10-31T00:24:16;10.60;99.90
12152;DHT22;6139;51.274;7.128;2023-10-31T00:25:18;10.60;99.90
12152;DHT22;6139;51.274;7.128;2023-10-31T00:26:19;10.60;99.90
12152;DHT22;6139;51.274;7.128;2023-10-31T00:27:30;10.60;99.90
12152;DHT22;6139;51.274;7.128;2023-10-31T00:28:31;10.50;99.90
12152;DHT22;6139;51.274;7.128;2023-10-31T00:29:33;10.50;99.90
12152;DHT22;6139;51.274;7.128;2023-10-31T00:30:34;10.50;99.90
12152;DHT22;6139;51.274;7.128;2023-10-31T00:31:36;10.50;99.90
12152;DHT22;6139;51.274;7.128;2023-10-31T00:32:37;10.50;99.90
12152;DHT22;6139;51.274;7.128;2023-10-31T00:33:38;10.50;99.90
12152;DHT22;6139;51.274;7.128;2023-10-31T00:34:40;10.50;99.90
12152;DHT22;6139;51.274;7.128;2023-10-31T00:35:40;10.50;99.90
12152;DHT22;6139;51.274;7.128;2023-10-31T00:36:44;10.40;99.90
12152;DHT22;6139;51.274;7.128;2023-10-31T00:37:45;10.40;99.90
12152;DHT22;6139;51.274;7.128;2023-10-31T00:38:47;10.40;99.90
12152;DHT22;6139;51.274;7.128;2023-10-31T00:39:48;10.40;99.90
12152;DHT22;6139;51.274;7.128;2023-10-31T00:40:50;10.40;99.90
12152;DHT22;6139;51.274;7.128;2023-10-31T00:41:51;10.40;99.90
12152;DHT22;6139;51.274;7.128;2023-10-31T00:42:53;10.40;99.90
12152;DHT22;6139;51.274;7.128;2023-10-31T00:43:56;10.40;99.90
12152;DHT22;6139;51.274;7.128;2023-10-31T00:44:59;10.40;99.90
12152;DHT22;6139;51.274;7.128;2023-10-31T00:46:03;10.40;99.90
12152;DHT22;6139;51.274;7.128;2023-10-31T00:47:05;10.40;99.90
12152;DHT22;6139;51.274;7.128;2023-10-31T00:48:06;10.40;99.90
12152;DHT22;6139;51.274;7.128;2023-10-31T00:49:08;10.50;99.90
12152;DHT22;6139;51.274;7.128;2023-10-31T00:50:09;10.50;99.90
12152;DHT22;6139;51.274;7.128;2023-10-31T00:51:11;10.50;99.90
12152;DHT22;6139;51.274;7.128;2023-10-31T00:52:13;10.50;99.90
12152;DHT22;6139;51.274;7.128;2023-10-31T00:53:15;10.50;99.90
12152;DHT22;6139;51.274;7.128;2023-10-31T00:54:17;10.50;99.90
12152;DHT22;6139;51.274;7.128;2023-10-31T00:55:20;10.50;99.90
12152;DHT22;6139;51.274;7.128;2023-10-31T00:56:22;10.50;99.90
12152;DHT22;6139;51.274;7.128;2023-10-31T00:57:24;10.50;99.90
12152;DHT22;6139;51.274;7.128;2023-10-31T00:58:25;10.60;99.90
12152;DHT22;6139;51.274;7.128;2023-10-31T00:59:27;10.50;99.90
12152;DHT22;6139;51.274;7.128;2023-10-31T01:00:29;10.60;99.90
12152;DHT22;6139;51.274;7.128;2023-10-31T01:01:32;10.60;99.90
12152;DHT22;6139;51.274;7.128;2023-10-31T01:02:33;10.60;99.90
12152;DHT22;6139;51.274;7.128;2023-10-31T01:03:34;10.50;99.90
12152;DHT22;6139;51.274;7.128;2023-10-31T01:04:36;10.50;99.90
12152;DHT22;6139;51.274;7.128;2023-10-31T01:05:37;10.50;99.90
12152;DHT22;6139;51.274;7.128;2023-10-31T01:06:41;10.50;99.90
12152;DHT22;6139;51.274;7.128;2023-10-31T01:07:43;10.40;99.90
12152;DHT22;6139;51.274;7.128;2023-10-31T01:08:45;10.40;99.90
12152;DHT22;6139;51.274;7.128;2023-10-31T01:09:46;10.40;99.90
12152;DHT22;6139;51.274;7.128;2023-10-31T01:10:48;10.40;99.90
12152;DHT22;6139;51.274;7.128;2023-10-31T01:11:49;10.40;99.90
12152;DHT22;6139;51.274;7.128;2023-10-31T01:12:50;10.40;99.90
12152;DHT22;6139;51.274;7.128;2023-10-31T01:13:52;10.40;99.90
12152;DHT22;6139;51.274;7.128;2023-10-31T01:14:53;10.40;99.90
12152;DHT22;6139;51.274;7.128;2023-10-31T01:15:55;10.40;99.90
12152;DHT22;6139;51.274;7.128;2023-10-31T01:16:56;10.40;99.90
12152;DHT22;6139;51.274;7.128;2023-10-31T01:17:58;10.40;99.90
12152;DHT22;6139;51.274;7.128;2023-10-31T01:18:59;10.40;99.90
12152;DHT22;6139;51.274;7.128;2023-10-31T01:20:03;10.40;99.90
12152;DHT22;6139;51.274;7.128;2023-10-31T01:21:04;10.40;99.90
12152;DHT22;6139;51.274;7.128;2023-10-31T01:22:06;10.40;99.90
12152;DHT22;6139;51.274;7.128;2023-10-31T01:23:09;10.40;99.90
12152;DHT22;6139;51.274;7.128;2023-10-31T01:24:11;10.40;99.90
12152;DHT22;6139;51.274;7.128;2023-10-31T01:25:12;10.40;99.90
12152;DHT22;6139;51.274;7.128;2023-10-31T01:26:14;10.40;99.90
12152;DHT22;6139;51.274;7.128;2023-10-31T01:27:15;10.40;99.90
12152;DHT22;6139;51.274;7.128;2023-10-31T01:28:17;10.30;99.90
12152;DHT22;6139;51.274;7.128;2023-10-31T01:29:19;10.30;99.90
12152;DHT22;6139;51.274;7.128;2023-10-31T01:30:21;10.30;99.90
12152;DHT22;6139;51.274;7.128;2023-10-31T01:31:22;10.30;99.90
12152;DHT22;6139;51.274;7.128;2023-10-31T01:32:24;10.20;99.90
12152;DHT22;6139;51.274;7.128;2023-10-31T01:33:26;10.20;99.90
12152;DHT22;6139;51.274;7.128;2023-10-31T01:34:27;10.20;99.90
12152;DHT22;6139;51.274;7.128;2023-10-31T01:35:28;10.20;99.90
12152;DHT22;6139;51.274;7.128;2023-10-31T01:36:30;10.20;99.90
12152;DHT22;6139;51.274;7.128;2023-10-31T01:37:31;10.20;99.90
12152;DHT22;6139;51.274;7.128;2023-10-31T01:38:34;10.20;99.90
12152;DHT22;6139;51.274;7.128;2023-10-31T01:39:36;10.20;99.90
12152;DHT22;6139;51.274;7.128;2023-10-31T01:40:37;10.20;99.90
12152;DHT22;6139;51.274;7.128;2023-10-31T01:41:40;10.20;99.90
12152;DHT22;6139;51.274;7.128;2023-10-31T01:42:42;10.20;99.90
12152;DHT22;6139;51.274;7.128;2023-10-31T01:43:44;10.20;99.90
12152;DHT22;6139;51.274;7.128;2023-10-31T01:44:46;10.20;99.90
12152;DHT22;6139;51.274;7.128;2023-10-31T01:45:47;10.20;99.90
12152;DHT22;6139;51.274;7.128;2023-10-31T01:46:49;10.20;99.90
12152;DHT22;6139;51.274;7.128;2023-10-31T01:47:51;10.20;99.90
12152;DHT22;6139;51.274;7.128;2023-10-31T01:48:53;10.20;99.90
12152;DHT22;6139;51.274;7.128;2023-10-31T01:49:54;10.20;99.90
12152;DHT22;6139;51.274;7.128;2023-10-31T01:50:56;10.20;99.90
12152;DHT22;6139;51.274;7.128;2023-10-31T01:52:00;10.20;99.90
12152;DHT22;6139;51.274;7.128;2023-10-31T01:53:01;10.20;99.90
12152;DHT22;6139;51.274;7.128;2023-10-31T01:54:05;10.20;99.90
12152;DHT22;6139;51.274;7.128;2023-10-31T01:55:07;10.20;99.90
12152;DHT22;6139;51.274;7.128;2023-10-31T01:56:10;10.20;99.90
12152;DHT22;6139;51.274;7.128;2023-10-31T01:57:11;10.20;99.90
12152;DHT22;6139;51.274;7.128;2023-10-31T01:58:12;10.10;99.90
12152;DHT22;6139;51.274;7.128;2023-10-31T01:59:14;10.10;99.90
12152;DHT22;6139;51.274;7.128;2023-10-31T02:00:16;10.10;99.90
12152;DHT22;6139;51.274;7.128;2023-10-31T02:01:18;10.20;99.90
12152;DHT22;6139;51.274;7.128;2023-10-31T02:02:22;10.20;99.90
12152;DHT22;6139;51.274;7.128;2023-10-31T02:03:24;10.20;99.90
12152;DHT22;6139;51.274;7.128;2023-10-31T02:04:25;10.10;99.90
12152;DHT22;6139;51.274;7.128;2023-10-31T02:05:26;10.10;99.90
12152;DHT22;6139;51.274;7.128;2023-10-31T02:06:29;10.10;99.90
12152;DHT22;6139;51.274;7.128;2023-10-31T02:07:31;10.10;99.90
12152;DHT22;6139;51.274;7.128;2023-10-31T02:08:33;10.10;99.90
12152;DHT22;6139;51.274;7.128;2023-10-31T02:09:35;10.10;99.90
12152;DHT22;6139;51.274;7.128;2023-10-31T02:10:37;10.10;99.90
12152;DHT22;6139;51.274;7.128;2023-10-31T02:11:38;10.10;99.90
12152;DHT22;6139;51.274;7.128;2023-10-31T02:12:41;10.10;99.90
12152;DHT22;6139;51.274;7.128;2023-10-31T02:13:45;10.10;99.90
12152;DHT22;6139;51.274;7.128;2023-10-31T02:14:46;10.10;99.90
12152;DHT22;6139;51.274;7.128;2023-10-31T02:15:48;10.10;99.90
12152;DHT22;6139;51.274;7.128;2023-10-31T02:16:50;10.00;99.90
12152;DHT22;6139;51.274;7.128;2023-10-31T02:17:51;10.00;99.90
12152;DHT22;6139;51.274;7.128;2023-10-31T02:18:53;10.00;99.90
12152;DHT22;6139;51.274;7.128;2023-10-31T02:19:54;10.00;99.90
12152;DHT22;6139;51.274;7.128;2023-10-31T02:20:56;10.10;99.90
12152;DHT22;6139;51.274;7.128;2023-10-31T02:21:58;10.00;99.90
12152;DHT22;6139;51.274;7.128;2023-10-31T02:23:01;10.00;99.90
12152;DHT22;6139;51.274;7.128;2023-10-31T02:24:05;10.00;99.90
12152;DHT22;6139;51.274;7.128;2023-10-31T02:25:16;10.00;99.90
12152;DHT22;6139;51.274;7.128;2023-10-31T02:26:18;10.00;99.90
12152;DHT22;6139;51.274;7.128;2023-10-31T02:27:20;10.00;99.90
12152;DHT22;6139;51.274;7.128;2023-10-31T02:28:21;10.00;99.90
12152;DHT22;6139;51.274;7.128;2023-10-31T02:29:23;10.00;99.90
12152;DHT22;6139;51.274;7.128;2023-10-31T02:30:24;10.00;99.90
12152;DHT22;6139;51.274;7.128;2023-10-31T02:31:25;10.00;99.90
12152;DHT22;6139;51.274;7.128;2023-10-31T02:32:27;10.00;99.90
12152;DHT22;6139;51.274;7.128;2023-10-31T02:33:29;10.00;99.90
12152;DHT22;6139;51.274;7.128;2023-10-31T02:34:30;10.00;99.90
12152;DHT22;6139;51.274;7.128;2023-10-31T02:35:32;10.00;99.90
12152;DHT22;6139;51.274;7.128;2023-10-31T02:36:33;9.90;99.90
12152;DHT22;6139;51.274;7.128;2023-10-31T02:37:36;10.00;99.90
12152;DHT22;6139;51.274;7.128;2023-10-31T02:38:37;10.00;99.90
12152;DHT22;6139;51.274;7.128;2023-10-31T02:39:40;10.00;99.90
12152;DHT22;6139;51.274;7.128;2023-10-31T02:40:41;9.90;99.90
12152;DHT22;6139;51.274;7.128;2023-10-31T02:41:43;10.00;99.90
12152;DHT22;6139;51.274;7.128;2023-10-31T02:42:44;10.00;99.90
12152;DHT22;6139;51.274;7.128;2023-10-31T02:43:45;10.00;99.90
12152;DHT22;6139;51.274;7.128;2023-10-31T02:44:47;10.00;99.90
12152;DHT22;6139;51.274;7.128;2023-10-31T02:45:50;10.00;99.90
12152;DHT22;6139;51.274;7.128;2023-10-31T02:46:52;10.00;99.90
12152;DHT22;6139;51.274;7.128;2023-10-31T02:47:53;10.00;99.90
12152;DHT22;6139;51.274;7.128;2023-10-31T02:48:55;10.00;99.90
12152;DHT22;6139;51.274;7.128;2023-10-31T02:49:56;10.00;99.90
12152;DHT22;6139;51.274;7.128;2023-10-31T02:50:57;10.00;99.90
12152;DHT22;6139;51.274;7.128;2023-10-31T02:51:59;10.00;99.90
12152;DHT22;6139;51.274;7.128;2023-10-31T02:53:02;10.10;99.90
12152;DHT22;6139;51.274;7.128;2023-10-31T02:54:05;10.10;99.90
12152;DHT22;6139;51.274;7.128;2023-10-31T02:55:06;10.10;99.90
12152;DHT22;6139;51.274;7.128;2023-10-31T02:56:08;10.10;99.90
12152;DHT22;6139;51.274;7.128;2023-10-31T02:57:09;10.10;99.90
12152;DHT22;6139;51.274;7.128;2023-10-31T02:58:12;10.10;99.90
12152;DHT22;6139;51.274;7.128;2023-10-31T02:59:12;10.10;99.90
12152;DHT22;6139;51.274;7.128;2023-10-31T03:00:15;10.00;99.90
12152;DHT22;6139;51.274;7.128;2023-10-31T03:01:16;10.00;99.90
12152;DHT22;6139;51.274;7.128;2023-10-31T03:02:20;10.00;99.90
12152;DHT22;6139;51.274;7.128;2023-10-31T03:03:23;10.00;99.90
12152;DHT22;6139;51.274;7.128;2023-10-31T03:04:25;9.90;99.90
12152;DHT22;6139;51.274;7.128;2023-10-31T03:05:25;10.00;99.90
12152;DHT22;6139;51.274;7.128;2023-10-31T03:06:27;10.00;99.90
12152;DHT22;6139;51.274;7.128;2023-10-31T03:07:28;10.00;99.90
12152;DHT22;6139;51.274;7.128;2023-10-31T03:08:31;10.00;99.90
12152;DHT22;6139;51.274;7.128;2023-10-31T03:09:33;10.00;99.90
12152;DHT22;6139;51.274;7.128;2023-10-31T03:10:34;9.90;99.90
12152;DHT22;6139;51.274;7.128;2023-10-31T03:11:36;10.00;99.90
12152;DHT22;6139;51.274;7.128;2023-10-31T03:12:37;9.90;99.90
12152;DHT22;6139;51.274;7.128;2023-10-31T03:13:39;9.90;99.90
12152;DHT22;6139;51.274;7.128;2023-10-31T03:14:40;9.90;99.90
12152;DHT22;6139;51.274;7.128;2023-10-31T03:15:42;9.90;99.90
12152;DHT22;6139;51.274;7.128;2023-10-31T03:16:44;9.90;99.90
12152;DHT22;6139;51.274;7.128;2023-10-31T03:17:46;9.90;99.90
12152;DHT22;6139;51.274;7.128;2023-10-31T03:18:47;9.90;99.90
12152;DHT22;6139;51.274;7.128;2023-10-31T03:19:48;9.80;99.90
12152;DHT22;6139;51.274;7.128;2023-10-31T03:20:49;9.80;99.90
12152;DHT22;6139;51.274;7.128;2023-10-31T03:21:51;9.80;99.90
12152;DHT22;6139;51.274;7.128;2023-10-31T03:22:52;9.80;99.90
12152;DHT22;6139;51.274;7.128;2023-10-31T03:23:56;9.80;99.90
12152;DHT22;6139;51.274;7.128;2023-10-31T03:24:57;9.90;99.90
12152;DHT22;6139;51.274;7.128;2023-10-31T03:25:59;9.90;99.90
12152;DHT22;6139;51.274;7.128;2023-10-31T03:27:00;9.90;99.90
12152;DHT22;6139;51.274;7.128;2023-10-31T03:28:02;9.80;99.90
12152;DHT22;6139;51.274;7.128;2023-10-31T03:29:04;9.90;99.90
12152;DHT22;6139;51.274;7.128;2023-10-31T03:30:06;9.90;99.90
12152;DHT22;6139;51.274;7.128;2023-10-31T03:31:09;9.90;99.90
12152;DHT22;6139;51.274;7.128;2023-10-31T03:32:10;9.90;99.90
12152;DHT22;6139;51.274;7.128;2023-10-31T03:33:12;9.90;99.90
12152;DHT22;6139;51.274;7.128;2023-10-31T03:34:13;9.90;99.90
12152;DHT22;6139;51.274;7.128;2023-10-31T03:35:15;9.90;99.90
12152;DHT22;6139;51.274;7.128;2023-10-31T03:36:16;9.90;99.90
12152;DHT22;6139;51.274;7.128;2023-10-31T03:37:18;9.90;99.90
12152;DHT22;6139;51.274;7.128;2023-10-31T03:38:19;9.90;99.90
12152;DHT22;6139;51.274;7.128;2023-10-31T03:39:22;9.90;99.90
12152;DHT22;6139;51.274;7.128;2023-10-31T03:40:23;9.90;99.90
12152;DHT22;6139;51.274;7.128;2023-10-31T03:41:25;9.90;99.90
12152;DHT22;6139;51.274;7.128;2023-10-31T03:42:26;9.90;99.90
12152;DHT22;6139;51.274;7.128;2023-10-31T03:43:30;10.00;99.90
12152;DHT22;6139;51.274;7.128;2023-10-31T03:44:31;9.90;99.90
12152;DHT22;6139;51.274;7.128;2023-10-31T03:45:32;9.90;99.90
12152;DHT22;6139;51.274;7.128;2023-10-31T03:46:34;9.90;99.90
12152;DHT22;6139;51.274;7.128;2023-10-31T03:47:35;9.90;99.90
12152;DHT22;6139;51.274;7.128;2023-10-31T03:48:37;9.90;99.90
12152;DHT22;6139;51.274;7.128;2023-10-31T03:49:39;9.90;99.90
12152;DHT22;6139;51.274;7.128;2023-10-31T03:50:41;9.90;99.90
12152;DHT22;6139;51.274;7.128;2023-10-31T03:51:42;9.90;99.90
12152;DHT22;6139;51.274;7.128;2023-10-31T03:52:44;9.90;99.90
12152;DHT22;6139;51.274;7.128;2023-10-31T03:53:45;9.90;99.90
12152;DHT22;6139;51.274;7.128;2023-10-31T03:54:48;9.90;99.90
12152;DHT22;6139;51.274;7.128;2023-10-31T03:55:49;9.90;99.90
12152;DHT22;6139;51.274;7.128;2023-10-31T03:56:51;9.90;99.90
12152;DHT22;6139;51.274;7.128;2023-10-31T03:57:52;9.90;99.90
12152;DHT22;6139;51.274;7.128;2023-10-31T03:58:53;10.00;99.90
12152;DHT22;6139;51.274;7.128;2023-10-31T03:59:55;9.90;99.90
12152;DHT22;6139;51.274;7.128;2023-10-31T04:00:57;9.90;99.90
12152;DHT22;6139;51.274;7.128;2023-10-31T04:01:58;9.90;99.90
12152;DHT22;6139;51.274;7.128;2023-10-31T04:03:00;9.90;99.90
12152;DHT22;6139;51.274;7.128;2023-10-31T04:04:01;9.90;99.90
12152;DHT22;6139;51.274;7.128;2023-10-31T04:05:03;9.90;99.90
12152;DHT22;6139;51.274;7.128;2023-10-31T04:06:05;9.90;99.90
12152;DHT22;6139;51.274;7.128;2023-10-31T04:07:07;9.90;99.90
12152;DHT22;6139;51.274;7.128;2023-10-31T04:08:08;9.90;99.90
12152;DHT22;6139;51.274;7.128;2023-10-31T04:09:10;9.90;99.90
12152;DHT22;6139;51.274;7.128;2023-10-31T04:10:13;9.90;99.90
12152;DHT22;6139;51.274;7.128;2023-10-31T04:11:15;9.90;99.90
12152;DHT22;6139;51.274;7.128;2023-10-31T04:12:16;9.90;99.90
12152;DHT22;6139;51.274;7.128;2023-10-31T04:13:18;9.90;99.90
12152;DHT22;6139;51.274;7.128;2023-10-31T04:14:19;9.80;99.90
12152;DHT22;6139;51.274;7.128;2023-10-31T04:15:21;9.80;99.90
12152;DHT22;6139;51.274;7.128;2023-10-31T04:16:22;9.80;99.90
12152;DHT22;6139;51.274;7.128;2023-10-31T04:17:24;9.80;99.90
12152;DHT22;6139;51.274;7.128;2023-10-31T04:18:25;9.80;99.90
12152;DHT22;6139;51.274;7.128;2023-10-31T04:19:27;9.80;99.90
12152;DHT22;6139;51.274;7.128;2023-10-31T04:20:28;9.90;99.90
12152;DHT22;6139;51.274;7.128;2023-10-31T04:21:29;9.90;99.90
12152;DHT22;6139;51.274;7.128;2023-10-31T04:22:31;9.90;99.90
12152;DHT22;6139;51.274;7.128;2023-10-31T04:23:32;9.80;99.90
12152;DHT22;6139;51.274;7.128;2023-10-31T04:24:34;9.80;99.90
12152;DHT22;6139;51.274;7.128;2023-10-31T04:25:37;9.90;99.90
12152;DHT22;6139;51.274;7.128;2023-10-31T04:26:40;9.90;99.90
12152;DHT22;6139;51.274;7.128;2023-10-31T04:27:41;9.80;99.90
12152;DHT22;6139;51.274;7.128;2023-10-31T04:28:43;9.80;99.90
12152;DHT22;6139;51.274;7.128;2023-10-31T04:29:44;9.80;99.90
12152;DHT22;6139;51.274;7.128;2023-10-31T04:30:46;9.80;99.90
12152;DHT22;6139;51.274;7.128;2023-10-31T04:31:47;9.90;99.90
12152;DHT22;6139;51.274;7.128;2023-10-31T04:32:49;9.90;99.90
12152;DHT22;6139;51.274;7.128;2023-10-31T04:33:50;9.90;99.90
12152;DHT22;6139;51.274;7.128;2023-10-31T04:34:52;9.80;99.90
12152;DHT22;6139;51.274;7.128;2023-10-31T04:35:53;9.80;99.90
12152;DHT22;6139;51.274;7.128;2023-10-31T04:36:55;9.90;99.90
12152;DHT22;6139;51.274;7.128;2023-10-31T04:37:57;9.90;99.90
12152;DHT22;6139;51.274;7.128;2023-10-31T04:38:58;9.80;99.90
12152;DHT22;6139;51.274;7.128;2023-10-31T04:40:02;9.80;99.90
12152;DHT22;6139;51.274;7.128;2023-10-31T04:41:05;9.80;99.90
12152;DHT22;6139;51.274;7.128;2023-10-31T04:42:07;9.90;99.90
12152;DHT22;6139;51.274;7.128;2023-10-31T04:43:08;9.90;99.90
12152;DHT22;6139;51.274;7.128;2023-10-31T04:44:10;9.90;99.90
12152;DHT22;6139;51.274;7.128;2023-10-31T04:45:10;9.80;99.90
12152;DHT22;6139;51.274;7.128;2023-10-31T04:46:12;9.80;99.90
12152;DHT22;6139;51.274;7.128;2023-10-31T04:47:13;9.80;99.90
12152;DHT22;6139;51.274;7.128;2023-10-31T04:48:14;9.80;99.90
12152;DHT22;6139;51.274;7.128;2023-10-31T04:49:16;9.80;99.90
12152;DHT22;6139;51.274;7.128;2023-10-31T04:50:17;9.80;99.90
12152;DHT22;6139;51.274;7.128;2023-10-31T04:51:20;9.80;99.90
12152;DHT22;6139;51.274;7.128;2023-10-31T04:52:21;9.80;99.90
12152;DHT22;6139;51.274;7.128;2023-10-31T04:53:23;9.80;99.90
12152;DHT22;6139;51.274;7.128;2023-10-31T04:54:24;9.80;99.90
12152;DHT22;6139;51.274;7.128;2023-10-31T04:55:26;9.80;99.90
12152;DHT22;6139;51.274;7.128;2023-10-31T04:56:28;9.80;99.90
12152;DHT22;6139;51.274;7.128;2023-10-31T04:57:31;9.80;99.90
12152;DHT22;6139;51.274;7.128;2023-10-31T04:58:31;9.70;99.90
12152;DHT22;6139;51.274;7.128;2023-10-31T04:59:33;9.80;99.90
12152;DHT22;6139;51.274;7.128;2023-10-31T05:00:34;9.80;99.90
12152;DHT22;6139;51.274;7.128;2023-10-31T05:01:37;9.80;99.90
12152;DHT22;6139;51.274;7.128;2023-10-31T05:02:38;9.80;99.90
12152;DHT22;6139;51.274;7.128;2023-10-31T05:03:40;9.70;99.90
12152;DHT22;6139;51.274;7.128;2023-10-31T05:04:41;9.80;99.90
12152;DHT22;6139;51.274;7.128;2023-10-31T05:05:43;9.80;99.90
12152;DHT22;6139;51.274;7.128;2023-10-31T05:06:44;9.80;99.90
12152;DHT22;6139;51.274;7.128;2023-10-31T05:07:46;9.80;99.90
12152;DHT22;6139;51.274;7.128;2023-10-31T05:08:47;9.80;99.90
12152;DHT22;6139;51.274;7.128;2023-10-31T05:09:49;9.80;99.90
12152;DHT22;6139;51.274;7.128;2023-10-31T05:10:50;9.80;99.90
12152;DHT22;6139;51.274;7.128;2023-10-31T05:11:53;9.80;99.90
12152;DHT22;6139;51.274;7.128;2023-10-31T05:12:54;9.80;99.90
12152;DHT22;6139;51.274;7.128;2023-10-31T05:13:57;9.80;99.90
12152;DHT22;6139;51.274;7.128;2023-10-31T05:14:59;9.80;99.90
12152;DHT22;6139;51.274;7.128;2023-10-31T05:16:01;9.80;99.90
12152;DHT22;6139;51.274;7.128;2023-10-31T05:17:02;9.80;99.90
12152;DHT22;6139;51.274;7.128;2023-10-31T05:18:04;9.80;99.90
12152;DHT22;6139;51.274;7.128;2023-10-31T05:19:05;9.80;99.90
12152;DHT22;6139;51.274;7.128;2023-10-31T05:20:06;9.80;99.90
12152;DHT22;6139;51.274;7.128;2023-10-31T05:21:09;9.80;99.90
12152;DHT22;6139;51.274;7.128;2023-10-31T05:22:10;9.80;99.90
12152;DHT22;6139;51.274;7.128;2023-10-31T05:23:12;9.80;99.90
12152;DHT22;6139;51.274;7.128;2023-10-31T05:24:13;9.80;99.90
12152;DHT22;6139;51.274;7.128;2023-10-31T05:25:15;9.80;99.90
12152;DHT22;6139;51.274;7.128;2023-10-31T05:26:16;9.80;99.90
12152;DHT22;6139;51.274;7.128;2023-10-31T05:27:19;9.80;99.90
12152;DHT22;6139;51.274;7.128;2023-10-31T05:28:20;9.70;99.90
12152;DHT22;6139;51.274;7.128;2023-10-31T05:29:23;9.70;99.90
12152;DHT22;6139;51.274;7.128;2023-10-31T05:30:24;9.70;99.90
12152;DHT22;6139;51.274;7.128;2023-10-31T05:31:26;9.70;99.90
12152;DHT22;6139;51.274;7.128;2023-10-31T05:32:27;9.70;99.90
12152;DHT22;6139;51.274;7.128;2023-10-31T05:33:29;9.70;99.90
12152;DHT22;6139;51.274;7.128;2023-10-31T05:34:30;9.70;99.90
12152;DHT22;6139;51.274;7.128;2023-10-31T05:35:33;9.70;99.90
12152;DHT22;6139;51.274;7.128;2023-10-31T05:36:34;9.70;99.90
12152;DHT22;6139;51.274;7.128;2023-10-31T05:37:36;9.70;99.90
12152;DHT22;6139;51.274;7.128;2023-10-31T05:38:37;9.80;99.90
12152;DHT22;6139;51.274;7.128;2023-10-31T05:39:38;9.80;99.90
12152;DHT22;6139;51.274;7.128;2023-10-31T05:40:39;9.70;99.90
12152;DHT22;6139;51.274;7.128;2023-10-31T05:41:40;9.70;99.90
12152;DHT22;6139;51.274;7.128;2023-10-31T05:42:44;9.70;99.90
12152;DHT22;6139;51.274;7.128;2023-10-31T05:43:45;9.70;99.90
12152;DHT22;6139;51.274;7.128;2023-10-31T05:44:47;9.70;99.90
12152;DHT22;6139;51.274;7.128;2023-10-31T05:45:48;9.70;99.90
12152;DHT22;6139;51.274;7.128;2023-10-31T05:46:50;9.70;99.90
12152;DHT22;6139;51.274;7.128;2023-10-31T05:47:50;9.70;99.90
12152;DHT22;6139;51.274;7.128;2023-10-31T05:48:52;9.70;99.90
12152;DHT22;6139;51.274;7.128;2023-10-31T05:49:56;9.80;99.90
12152;DHT22;6139;51.274;7.128;2023-10-31T05:50:58;9.80;99.90
12152;DHT22;6139;51.274;7.128;2023-10-31T05:51:59;9.70;99.90
12152;DHT22;6139;51.274;7.128;2023-10-31T05:53:01;9.70;99.90
12152;DHT22;6139;51.274;7.128;2023-10-31T05:54:02;9.70;99.90
12152;DHT22;6139;51.274;7.128;2023-10-31T05:55:05;9.80;99.90
12152;DHT22;6139;51.274;7.128;2023-10-31T05:56:07;9.70;99.90
12152;DHT22;6139;51.274;7.128;2023-10-31T05:57:09;9.70;99.90
12152;DHT22;6139;51.274;7.128;2023-10-31T05:58:11;9.70;99.90
12152;DHT22;6139;51.274;7.128;2023-10-31T05:59:16;9.70;99.90
12152;DHT22;6139;51.274;7.128;2023-10-31T06:00:18;9.70;99.90
12152;DHT22;6139;51.274;7.128;2023-10-31T06:01:19;9.70;99.90
12152;DHT22;6139;51.274;7.128;2023-10-31T06:02:21;9.70;99.90
12152;DHT22;6139;51.274;7.128;2023-10-31T06:03:21;9.70;99.90
12152;DHT22;6139;51.274;7.128;2023-10-31T06:04:23;9.60;99.90
12152;DHT22;6139;51.274;7.128;2023-10-31T06:05:25;9.70;99.90
12152;DHT22;6139;51.274;7.128;2023-10-31T06:06:27;9.70;99.90
12152;DHT22;6139;51.274;7.128;2023-10-31T06:07:28;9.70;99.90
12152;DHT22;6139;51.274;7.128;2023-10-31T06:08:31;9.70;99.90
12152;DHT22;6139;51.274;7.128;2023-10-31T06:09:32;9.70;99.90
12152;DHT22;6139;51.274;7.128;2023-10-31T06:10:34;9.70;99.90
12152;DHT22;6139;51.274;7.128;2023-10-31T06:11:35;9.70;99.90
12152;DHT22;6139;51.274;7.128;2023-10-31T06:12:37;9.70;99.90
12152;DHT22;6139;51.274;7.128;2023-10-31T06:13:40;9.70;99.90
12152;DHT22;6139;51.274;7.128;2023-10-31T06:14:41;9.70;99.90
12152;DHT22;6139;51.274;7.128;2023-10-31T06:15:44;9.70;99.90
12152;DHT22;6139;51.274;7.128;2023-10-31T06:16:45;9.70;99.90
12152;DHT22;6139;51.274;7.128;2023-10-31T06:17:47;9.80;99.90
12152;DHT22;6139;51.274;7.128;2023-10-31T06:18:48;9.80;99.90
12152;DHT22;6139;51.274;7.128;2023-10-31T06:19:50;9.80;99.90
12152;DHT22;6139;51.274;7.128;2023-10-31T06:20:51;9.80;99.90
12152;DHT22;6139;51.274;7.128;2023-10-31T06:21:52;9.80;99.90
12152;DHT22;6139;51.274;7.128;2023-10-31T06:22:53;9.80;99.90
12152;DHT22;6139;51.274;7.128;2023-10-31T06:23:55;9.80;99.90
12152;DHT22;6139;51.274;7.128;2023-10-31T06:24:56;9.80;99.90
12152;DHT22;6139;51.274;7.128;2023-10-31T06:25:59;9.80;99.90
12152;DHT22;6139;51.274;7.128;2023-10-31T06:27:00;9.80;99.90
12152;DHT22;6139;51.274;7.128;2023-10-31T06:28:01;9.80;99.90
12152;DHT22;6139;51.274;7.128;2023-10-31T06:29:04;9.80;99.90
12152;DHT22;6139;51.274;7.128;2023-10-31T06:30:06;9.80;99.90
12152;DHT22;6139;51.274;7.128;2023-10-31T06:31:07;9.70;99.90
12152;DHT22;6139;51.274;7.128;2023-10-31T06:32:09;9.70;99.90
12152;DHT22;6139;51.274;7.128;2023-10-31T06:33:10;9.80;99.90
12152;DHT22;6139;51.274;7.128;2023-10-31T06:34:12;9.80;99.90
12152;DHT22;6139;51.274;7.128;2023-10-31T06:35:13;9.80;99.90
12152;DHT22;6139;51.274;7.128;2023-10-31T06:36:15;9.80;99.90
12152;DHT22;6139;51.274;7.128;2023-10-31T06:37:16;9.80;99.90
12152;DHT22;6139;51.274;7.128;2023-10-31T06:38:18;9.80;99.90
12152;DHT22;6139;51.274;7.128;2023-10-31T06:39:19;9.80;99.90
12152;DHT22;6139;51.274;7.128;2023-10-31T06:40:23;9.80;99.90